createdAt,value
2023-03-04T00:00:07.356Z,92964.06
2023-03-04T00:01:39.104Z,92959.25
2023-03-04T00:03:11.310Z,92961.38
2023-03-04T00:04:43.042Z,92956.34
2023-03-04T00:06:14.570Z,92961.91
2023-03-04T00:07:46.232Z,92961.63
2023-03-04T00:09:17.874Z,92958.97
2023-03-04T00:10:49.391Z,92961.13
2023-03-04T00:12:20.899Z,92961.69
2023-03-04T00:13:52.757Z,92961.97
2023-03-04T00:15:24.334Z,92965.94
2023-03-04T00:16:56.313Z,92963.84
2023-03-04T00:18:27.959Z,92960.66
2023-03-04T00:19:59.455Z,92966.25
2023-03-04T00:21:31.093Z,92962.00
2023-03-04T00:23:02.697Z,92971.06
2023-03-04T00:24:35.236Z,92964.41
2023-03-04T00:26:08.018Z,92964.41
2023-03-04T00:27:39.758Z,92963.63
2023-03-04T00:29:11.399Z,92965.22
2023-03-04T00:30:43.188Z,92966.59
2023-03-04T00:32:16.337Z,92967.38
2023-03-04T00:33:47.904Z,92972.94
2023-03-04T00:35:19.715Z,92965.22
2023-03-04T00:36:51.460Z,92968.97
2023-03-04T00:38:23.019Z,92965.50
2023-03-04T00:39:54.673Z,92971.69
2023-03-04T00:41:26.465Z,92963.16
2023-03-04T00:42:58.043Z,92962.63
2023-03-04T00:44:29.721Z,92957.28
2023-03-04T00:46:01.680Z,92954.88
2023-03-04T00:47:33.202Z,92951.72
2023-03-04T00:49:04.721Z,92953.88
2023-03-04T00:50:36.285Z,92953.06
2023-03-04T00:52:07.886Z,92951.47
2023-03-04T00:53:39.743Z,92949.59
2023-03-04T00:55:11.293Z,92945.88
2023-03-04T00:56:42.708Z,92949.06
2023-03-04T00:58:14.363Z,92942.66
2023-03-04T00:59:46.425Z,92938.88
2023-03-04T01:01:18.046Z,92932.75
2023-03-04T01:02:49.780Z,92938.88
2023-03-04T01:04:21.275Z,92931.97
2023-03-04T01:05:52.779Z,92931.66
2023-03-04T01:07:24.350Z,92932.47
2023-03-04T01:08:55.891Z,92934.34
2023-03-04T01:10:27.574Z,92934.06
2023-03-04T01:11:59.077Z,92935.13
2023-03-04T01:13:30.783Z,92933.00
2023-03-04T01:15:02.382Z,92932.16
2023-03-04T01:16:34.022Z,92931.38
2023-03-04T01:18:05.549Z,92928.16
2023-03-04T01:19:37.046Z,92931.59
2023-03-04T01:21:08.515Z,92931.88
2023-03-04T01:22:40.172Z,92928.69
2023-03-04T01:24:11.836Z,92925.78
2023-03-04T01:25:43.497Z,92922.31
2023-03-04T01:27:15.231Z,92931.97
2023-03-04T01:28:46.822Z,92926.38
2023-03-04T01:30:18.589Z,92921.84
2023-03-04T01:31:50.136Z,92922.91
2023-03-04T01:33:21.735Z,92923.19
2023-03-04T01:34:53.315Z,92925.59
2023-03-04T01:36:24.966Z,92922.66
2023-03-04T01:37:56.518Z,92920.78
2023-03-04T01:39:28.064Z,92921.56
2023-03-04T01:40:59.659Z,92921.06
2023-03-04T01:42:32.427Z,92927.97
2023-03-04T01:44:04.095Z,92914.38
2023-03-04T01:45:35.701Z,92914.38
2023-03-04T01:47:07.275Z,92919.69
2023-03-04T01:48:39.012Z,92918.38
2023-03-04T01:50:11.823Z,92923.44
2023-03-04T01:51:43.918Z,92916.72
2023-03-04T01:53:21.183Z,92912.50
2023-03-04T01:54:52.693Z,92913.84
2023-03-04T01:56:25.188Z,92916.78
2023-03-04T01:57:57.691Z,92912.00
2023-03-04T01:59:31.194Z,92909.59
2023-03-04T02:01:02.785Z,92912.53
2023-03-04T02:02:34.348Z,92914.72
2023-03-04T02:04:05.993Z,92902.19
2023-03-04T02:05:37.979Z,92910.19
2023-03-04T02:07:09.596Z,92907.00
2023-03-04T02:08:41.096Z,92903.81
2023-03-04T02:10:12.688Z,92905.16
2023-03-04T02:11:44.680Z,92901.47
2023-03-04T02:13:16.437Z,92902.22
2023-03-04T02:14:48.335Z,92900.09
2023-03-04T02:16:19.853Z,92906.47
2023-03-04T02:17:51.565Z,92901.09
2023-03-04T02:19:43.520Z,92908.00
2023-03-04T02:21:18.876Z,92907.22
2023-03-04T02:22:58.838Z,92901.66
2023-03-04T02:24:38.694Z,92908.06
2023-03-04T02:26:16.954Z,92899.00
2023-03-04T02:27:48.628Z,92907.78
2023-03-04T02:29:20.281Z,92906.19
2023-03-04T02:30:53.094Z,92899.25
2023-03-04T02:32:24.784Z,92892.31
2023-03-04T02:33:56.810Z,92898.19
2023-03-04T02:35:28.647Z,92893.38
2023-03-04T02:37:00.325Z,92902.69
2023-03-04T02:38:32.086Z,92902.69
2023-03-04T02:40:03.901Z,92894.19
2023-03-04T02:41:35.514Z,92889.63
2023-03-04T02:43:07.044Z,92896.03
2023-03-04T02:44:39.465Z,92896.53
2023-03-04T02:46:11.934Z,92896.25
2023-03-04T02:47:43.522Z,92892.31
2023-03-04T02:49:14.983Z,92884.56
2023-03-04T02:50:47.703Z,92889.13
2023-03-04T02:52:23.186Z,92888.31
2023-03-04T02:53:54.651Z,92887.53
2023-03-04T02:55:26.189Z,92886.72
2023-03-04T02:56:58.805Z,92882.69
2023-03-04T02:58:30.402Z,92890.44
2023-03-04T03:00:01.978Z,92886.16
2023-03-04T03:01:33.570Z,92884.84
2023-03-04T03:03:05.397Z,92886.44
2023-03-04T03:04:37.168Z,92874.44
2023-03-04T03:06:08.860Z,92877.66
2023-03-04T03:07:40.437Z,92867.25
2023-03-04T03:09:12.190Z,92878.19
2023-03-04T03:10:43.683Z,92873.94
2023-03-04T03:12:15.305Z,92866.19
2023-03-04T03:13:46.826Z,92871.53
2023-03-04T03:15:18.782Z,92869.13
2023-03-04T03:16:50.323Z,92871.00
2023-03-04T03:18:21.956Z,92870.47
2023-03-04T03:19:53.507Z,92866.19
2023-03-04T03:21:25.048Z,92870.47
2023-03-04T03:22:56.517Z,92865.13
2023-03-04T03:24:27.967Z,92864.84
2023-03-04T03:25:59.508Z,92861.13
2023-03-04T03:27:31.033Z,92869.66
2023-03-04T03:29:02.707Z,92864.59
2023-03-04T03:30:34.230Z,92866.47
2023-03-04T03:32:06.031Z,92871.81
2023-03-04T03:33:37.824Z,92865.41
2023-03-04T03:35:09.545Z,92864.34
2023-03-04T03:36:41.725Z,92869.66
2023-03-04T03:38:13.438Z,92864.13
2023-03-04T03:39:45.109Z,92863.59
2023-03-04T03:41:16.617Z,92865.22
2023-03-04T03:42:48.294Z,92858.28
2023-03-04T03:44:19.841Z,92862.81
2023-03-04T03:45:52.186Z,92865.75
2023-03-04T03:47:23.861Z,92859.63
2023-03-04T03:48:55.318Z,92861.22
2023-03-04T03:50:28.414Z,92862.81
2023-03-04T03:51:59.975Z,92863.63
2023-03-04T03:53:31.506Z,92859.34
2023-03-04T03:55:03.205Z,92860.44
2023-03-04T03:56:34.789Z,92867.34
2023-03-04T03:58:06.451Z,92870.81
2023-03-04T03:59:38.112Z,92868.44
2023-03-04T04:01:09.694Z,92871.88
2023-03-04T04:02:41.731Z,92868.69
2023-03-04T04:04:16.772Z,92870.03
2023-03-04T04:05:48.343Z,92866.00
2023-03-04T04:07:19.755Z,92868.13
2023-03-04T04:08:51.260Z,92868.94
2023-03-04T04:10:22.864Z,92862.78
2023-03-04T04:11:54.549Z,92866.81
2023-03-04T04:13:26.425Z,92860.94
2023-03-04T04:14:58.353Z,92869.22
2023-03-04T04:16:30.508Z,92859.41
2023-03-04T04:18:02.208Z,92861.28
2023-03-04T04:19:33.839Z,92857.00
2023-03-04T04:21:05.979Z,92860.75
2023-03-04T04:22:37.556Z,92854.91
2023-03-04T04:24:09.202Z,92853.81
2023-03-04T04:25:40.814Z,92868.69
2023-03-04T04:27:12.406Z,92858.56
2023-03-04T04:28:44.049Z,92864.16
2023-03-04T04:30:15.554Z,92857.25
2023-03-04T04:31:47.334Z,92857.00
2023-03-04T04:33:18.849Z,92856.75
2023-03-04T04:35:01.692Z,92846.94
2023-03-04T04:36:35.372Z,92854.97
2023-03-04T04:38:08.455Z,92856.03
2023-03-04T04:39:40.062Z,92853.66
2023-03-04T04:41:21.540Z,92857.38
2023-03-04T04:42:53.046Z,92858.75
2023-03-04T04:44:24.655Z,92866.22
2023-03-04T04:45:56.372Z,92863.56
2023-03-04T04:47:28.063Z,92866.75
2023-03-04T04:48:59.880Z,92864.63
2023-03-04T04:50:33.007Z,92872.63
2023-03-04T04:52:04.977Z,92863.56
2023-03-04T04:53:36.635Z,92864.88
2023-03-04T04:55:08.365Z,92862.50
2023-03-04T04:56:39.885Z,92872.09
2023-03-04T04:58:11.468Z,92871.31
2023-03-04T04:59:43.093Z,92872.16
2023-03-04T05:01:15.025Z,92863.72
2023-03-04T05:02:46.608Z,92867.47
2023-03-04T05:04:18.254Z,92862.69
2023-03-04T05:05:49.904Z,92874.94
2023-03-04T05:07:21.565Z,92865.63
2023-03-04T05:08:53.089Z,92860.03
2023-03-04T05:10:24.726Z,92875.75
2023-03-04T05:11:56.339Z,92878.69
2023-03-04T05:13:28.048Z,92876.59
2023-03-04T05:14:59.556Z,92873.69
2023-03-04T05:16:31.059Z,92879.81
2023-03-04T05:18:02.700Z,92880.13
2023-03-04T05:19:34.386Z,92873.19
2023-03-04T05:21:06.390Z,92879.88
2023-03-04T05:22:37.880Z,92890.25
2023-03-04T05:24:09.460Z,92884.66
2023-03-04T05:25:40.940Z,92884.69
2023-03-04T05:27:12.545Z,92887.09
2023-03-04T05:28:44.579Z,92873.50
2023-03-04T05:30:16.453Z,92883.38
2023-03-04T05:31:48.054Z,92884.44
2023-03-04T05:33:19.681Z,92881.78
2023-03-04T05:34:51.495Z,92887.63
2023-03-04T05:36:23.490Z,92888.44
2023-03-04T05:37:54.989Z,92882.56
2023-03-04T05:39:26.575Z,92890.56
2023-03-04T05:40:59.033Z,92883.63
2023-03-04T05:42:31.642Z,92880.97
2023-03-04T05:44:03.101Z,92890.56
2023-03-04T05:45:34.754Z,92888.69
2023-03-04T05:47:06.360Z,92889.50
2023-03-04T05:48:37.989Z,92887.09
2023-03-04T05:50:10.111Z,92892.69
2023-03-04T05:51:41.608Z,92892.13
2023-03-04T05:53:13.082Z,92889.19
2023-03-04T05:54:44.693Z,92893.72
2023-03-04T05:56:17.125Z,92879.59
2023-03-04T05:57:48.737Z,92887.84
2023-03-04T05:59:20.858Z,92883.31
2023-03-04T06:00:52.476Z,92891.06
2023-03-04T06:02:24.039Z,92892.38
2023-03-04T06:03:55.715Z,92900.63
2023-03-04T06:05:27.462Z,92899.56
2023-03-04T06:06:59.041Z,92896.59
2023-03-04T06:08:30.707Z,92893.13
2023-03-04T06:10:02.325Z,92902.72
2023-03-04T06:11:35.958Z,92904.06
2023-03-04T06:13:08.123Z,92906.94
2023-03-04T06:14:40.221Z,92906.66
2023-03-04T06:16:12.183Z,92918.13
2023-03-04T06:17:43.735Z,92912.25
2023-03-04T06:19:15.439Z,92909.59
2023-03-04T06:20:47.174Z,92912.25
2023-03-04T06:22:18.772Z,92910.13
2023-03-04T06:23:50.580Z,92910.38
2023-03-04T06:25:22.308Z,92915.69
2023-03-04T06:26:54.080Z,92918.34
2023-03-04T06:28:26.234Z,92920.16
2023-03-04T06:29:58.480Z,92912.91
2023-03-04T06:31:30.137Z,92921.91
2023-03-04T06:33:01.834Z,92924.03
2023-03-04T06:34:34.106Z,92919.75
2023-03-04T06:36:06.281Z,92919.94
2023-03-04T06:37:38.053Z,92918.81
2023-03-04T06:39:10.338Z,92919.81
2023-03-04T06:40:42.041Z,92927.00
2023-03-04T06:42:13.588Z,92925.41
2023-03-04T06:43:49.147Z,92919.19
2023-03-04T06:45:20.730Z,92924.53
2023-03-04T06:46:52.415Z,92927.19
2023-03-04T06:48:24.716Z,92925.84
2023-03-04T06:49:56.418Z,92924.47
2023-03-04T06:51:29.053Z,92927.94
2023-03-04T06:53:00.732Z,92927.63
2023-03-04T06:54:32.358Z,92925.69
2023-03-04T06:56:04.116Z,92924.34
2023-03-04T06:57:36.009Z,92924.88
2023-03-04T06:59:07.876Z,92933.69
2023-03-04T07:00:39.589Z,92933.97
2023-03-04T07:02:14.207Z,92931.81
2023-03-04T07:03:46.122Z,92936.06
2023-03-04T07:05:17.967Z,92941.41
2023-03-04T07:06:49.893Z,92935.75
2023-03-04T07:08:22.153Z,92932.53
2023-03-04T07:09:53.909Z,92935.97
2023-03-04T07:11:25.849Z,92938.06
2023-03-04T07:12:57.852Z,92935.94
2023-03-04T07:14:29.582Z,92928.97
2023-03-04T07:16:01.437Z,92931.38
2023-03-04T07:17:35.029Z,92927.91
2023-03-04T07:19:06.723Z,92931.63
2023-03-04T07:20:38.509Z,92929.19
2023-03-04T07:22:10.294Z,92928.34
2023-03-04T07:23:42.075Z,92934.16
2023-03-04T07:25:13.749Z,92934.63
2023-03-04T07:26:45.317Z,92930.00
2023-03-04T07:28:17.209Z,92928.09
2023-03-04T07:29:49.007Z,92930.72
2023-03-04T07:31:23.864Z,92925.88
2023-03-04T07:32:57.575Z,92924.50
2023-03-04T07:34:29.280Z,92928.81
2023-03-04T07:36:00.963Z,92933.41
2023-03-04T07:37:32.632Z,92932.75
2023-03-04T07:39:04.490Z,92933.66
2023-03-04T07:40:36.082Z,92934.72
2023-03-04T07:42:07.947Z,92928.81
2023-03-04T07:43:39.632Z,92927.16
2023-03-04T07:45:12.207Z,92931.44
2023-03-04T07:46:43.838Z,92925.53
2023-03-04T07:48:15.993Z,92919.38
2023-03-04T07:49:47.594Z,92922.31
2023-03-04T07:51:20.780Z,92922.75
2023-03-04T07:52:52.499Z,92923.00
2023-03-04T07:54:24.563Z,92922.13
2023-03-04T07:55:56.684Z,92922.34
2023-03-04T07:57:29.308Z,92922.59
2023-03-04T07:59:01.857Z,92926.06
2023-03-04T08:00:34.790Z,92923.59
2023-03-04T08:02:06.650Z,92927.88
2023-03-04T08:03:38.845Z,92918.53
2023-03-04T08:05:12.136Z,92921.00
2023-03-04T08:06:43.999Z,92921.81
2023-03-04T08:08:17.330Z,92922.34
2023-03-04T08:09:49.436Z,92916.44
2023-03-04T08:11:21.388Z,92913.44
2023-03-04T08:12:53.115Z,92919.00
2023-03-04T08:14:24.854Z,92919.00
2023-03-04T08:16:02.908Z,92919.81
2023-03-04T08:17:36.662Z,92914.66
2023-03-04T08:19:08.455Z,92908.03
2023-03-04T08:20:43.794Z,92919.28
2023-03-04T08:22:15.579Z,92921.69
2023-03-04T08:23:48.419Z,92908.88
2023-03-04T08:25:20.809Z,92912.06
2023-03-04T08:26:52.514Z,92918.50
2023-03-04T08:28:24.590Z,92916.91
2023-03-04T08:29:56.393Z,92917.75
2023-03-04T08:31:28.415Z,92917.19
2023-03-04T08:33:02.311Z,92921.16
2023-03-04T08:34:34.009Z,92913.06
2023-03-04T08:36:06.052Z,92920.75
2023-03-04T08:37:37.814Z,92916.66
2023-03-04T08:39:14.013Z,92914.75
2023-03-04T08:40:49.864Z,92911.00
2023-03-04T08:42:21.833Z,92916.28
2023-03-04T08:43:54.125Z,92914.91
2023-03-04T08:45:26.247Z,92914.69
2023-03-04T08:46:58.269Z,92915.75
2023-03-04T08:48:30.094Z,92921.63
2023-03-04T08:50:01.974Z,92915.63
2023-03-04T08:51:36.280Z,92916.16
2023-03-04T08:53:08.248Z,92917.44
2023-03-04T08:54:40.314Z,92915.63
2023-03-04T08:56:12.424Z,92911.97
2023-03-04T08:57:44.662Z,92913.31
2023-03-04T08:59:16.593Z,92917.53
2023-03-04T09:00:49.415Z,92919.28
2023-03-04T09:02:21.419Z,92918.69
2023-03-04T09:03:53.723Z,92913.84
2023-03-04T09:05:46.160Z,92922.38
2023-03-04T09:07:24.308Z,92922.91
2023-03-04T09:08:56.120Z,92918.13
2023-03-04T09:10:27.858Z,92923.56
2023-03-04T09:11:59.589Z,92917.59
2023-03-04T09:13:31.549Z,92918.63
2023-03-04T09:15:11.156Z,92910.53
2023-03-04T09:16:43.948Z,92916.31
2023-03-04T09:18:16.272Z,92917.91
2023-03-04T09:19:48.006Z,92914.06
2023-03-04T09:21:19.743Z,92914.53
2023-03-04T09:22:51.565Z,92912.31
2023-03-04T09:24:24.180Z,92909.09
2023-03-04T09:25:56.034Z,92911.59
2023-03-04T09:27:27.785Z,92915.81
2023-03-04T09:29:00.043Z,92900.81
2023-03-04T09:30:32.594Z,92907.03
2023-03-04T09:32:04.359Z,92906.47
2023-03-04T09:33:36.050Z,92901.91
2023-03-04T09:35:07.951Z,92897.19
2023-03-04T09:36:39.820Z,92906.38
2023-03-04T09:38:11.770Z,92899.94
2023-03-04T09:39:43.454Z,92907.34
2023-03-04T09:41:24.474Z,92903.91
2023-03-04T09:42:58.931Z,92908.03
2023-03-04T09:44:32.438Z,92901.97
2023-03-04T09:46:05.304Z,92900.09
2023-03-04T09:47:38.604Z,92905.06
2023-03-04T09:49:11.250Z,92895.06
2023-03-04T09:50:44.924Z,92905.09
2023-03-04T09:52:19.680Z,92902.84
2023-03-04T09:54:06.647Z,92898.72
2023-03-04T09:55:39.370Z,92892.56
2023-03-04T09:57:23.069Z,92888.38
2023-03-04T09:59:01.432Z,92898.22
2023-03-04T10:00:35.513Z,92893.66
2023-03-04T10:02:16.958Z,92886.41
2023-03-04T10:03:51.453Z,92889.06
2023-03-04T10:05:26.398Z,92887.81
2023-03-04T10:07:14.249Z,92885.59
2023-03-04T10:09:24.624Z,92879.75
2023-03-04T10:10:56.890Z,92875.50
2023-03-04T10:12:30.745Z,92884.25
2023-03-04T10:14:12.416Z,92880.66
2023-03-04T10:15:45.310Z,92875.72
2023-03-04T10:17:27.647Z,92867.19
2023-03-04T10:19:02.554Z,92871.56
2023-03-04T10:21:13.097Z,92871.94
2023-03-04T10:22:46.030Z,92879.19
2023-03-04T10:24:22.787Z,92872.66
2023-03-04T10:25:54.688Z,92867.94
2023-03-04T10:27:27.053Z,92860.59
2023-03-04T10:28:58.977Z,92863.00
2023-03-04T10:30:49.918Z,92858.59
2023-03-04T10:32:21.592Z,92864.34
2023-03-04T10:33:53.433Z,92855.81
2023-03-04T10:35:27.753Z,92844.66
2023-03-04T10:37:00.415Z,92845.00
2023-03-04T10:38:33.144Z,92849.44
2023-03-04T10:40:05.672Z,92847.47
2023-03-04T10:41:37.616Z,92839.91
2023-03-04T10:43:18.947Z,92839.09
2023-03-04T10:44:53.517Z,92833.75
2023-03-04T10:46:25.533Z,92834.69
2023-03-04T10:47:57.452Z,92834.47
2023-03-04T10:49:30.868Z,92838.63
2023-03-04T10:51:13.959Z,92827.94
2023-03-04T10:53:02.410Z,92829.34
2023-03-04T10:56:35.991Z,92826.84
2023-03-04T10:58:08.981Z,92822.28
2023-03-04T11:00:03.011Z,92819.16
2023-03-04T11:01:35.763Z,92815.25
2023-03-04T11:03:13.911Z,92812.75
2023-03-04T11:04:49.881Z,92810.91
2023-03-04T11:06:22.854Z,92810.63
2023-03-04T11:07:57.615Z,92812.19
2023-03-04T11:09:30.249Z,92798.09
2023-03-04T11:11:02.053Z,92801.56
2023-03-04T11:12:34.623Z,92797.91
2023-03-04T11:14:14.542Z,92795.06
2023-03-04T11:15:53.393Z,92794.72
2023-03-04T11:17:26.030Z,92790.94
2023-03-04T11:19:00.879Z,92791.09
2023-03-04T11:20:36.552Z,92789.63
2023-03-04T11:22:09.633Z,92784.09
2023-03-04T11:23:43.477Z,92791.91
2023-03-04T11:25:21.836Z,92788.03
2023-03-04T11:26:54.908Z,92783.19
2023-03-04T11:28:27.956Z,92784.25
2023-03-04T11:30:25.544Z,92780.25
2023-03-04T11:32:19.250Z,92773.50
2023-03-04T11:33:54.660Z,92777.13
2023-03-04T11:35:31.462Z,92769.97
2023-03-04T11:51:29.987Z,92765.09
2023-03-04T11:53:01.785Z,92753.16
2023-03-04T11:54:35.969Z,92752.97
2023-03-04T11:56:26.158Z,92756.03
2023-03-04T11:58:05.043Z,92756.25
2023-03-04T11:59:45.942Z,92752.25
2023-03-04T12:01:24.337Z,92754.75
2023-03-04T12:02:58.657Z,92762.81
2023-03-04T12:04:30.424Z,92756.44
2023-03-04T12:06:04.809Z,92758.13
2023-03-04T12:07:55.252Z,92757.66
2023-03-04T12:09:54.110Z,92760.00
2023-03-04T12:11:33.509Z,92754.75
2023-03-04T12:13:23.731Z,92755.16
2023-03-04T12:15:01.769Z,92750.59
2023-03-04T12:16:39.121Z,92747.31
2023-03-04T12:18:20.448Z,92747.63
2023-03-04T12:20:14.441Z,92746.81
2023-03-04T12:22:01.531Z,92740.66
2023-03-04T12:23:36.118Z,92745.63
2023-03-04T12:25:26.280Z,92742.63
2023-03-04T12:27:16.348Z,92744.63
2023-03-04T12:29:06.332Z,92738.34
2023-03-04T12:31:10.295Z,92739.84
2023-03-04T12:32:47.344Z,92740.66
2023-03-04T12:34:24.984Z,92737.09
2023-03-04T12:35:59.573Z,92737.38
2023-03-04T12:37:46.015Z,92732.13
2023-03-04T12:39:29.919Z,92733.41
2023-03-04T12:41:09.785Z,92729.53
2023-03-04T12:42:44.107Z,92728.41
2023-03-04T12:44:19.460Z,92730.53
2023-03-04T12:46:05.166Z,92727.44
2023-03-04T12:47:55.549Z,92730.00
2023-03-04T12:49:27.197Z,92726.22
2023-03-04T12:51:04.886Z,92726.72
2023-03-04T12:52:55.440Z,92721.06
2023-03-04T12:54:35.040Z,92729.03
2023-03-04T12:56:08.684Z,92725.97
2023-03-04T12:57:42.757Z,92718.47
2023-03-04T12:59:15.838Z,92715.31
2023-03-04T13:00:47.854Z,92720.06
2023-03-04T13:02:28.720Z,92714.44
2023-03-04T13:04:00.555Z,92708.88
2023-03-04T13:05:44.249Z,92707.28
2023-03-04T13:07:34.861Z,92713.63
2023-03-04T13:09:09.151Z,92716.59
2023-03-04T13:10:40.781Z,92702.72
2023-03-04T13:12:17.166Z,92701.13
2023-03-04T13:14:00.695Z,92697.34
2023-03-04T13:15:33.572Z,92704.59
2023-03-04T13:17:24.494Z,92702.63
2023-03-04T13:18:56.038Z,92697.34
2023-03-04T13:20:30.698Z,92695.28
2023-03-04T13:22:02.439Z,92698.91
2023-03-04T13:23:34.008Z,92698.84
2023-03-04T13:25:24.306Z,92690.78
2023-03-04T13:26:56.008Z,92693.38
2023-03-04T13:28:27.589Z,92696.41
2023-03-04T13:29:59.122Z,92692.84
2023-03-04T13:31:30.681Z,92688.56
2023-03-04T13:33:05.056Z,92687.63
2023-03-04T13:34:45.686Z,92693.28
2023-03-04T13:36:43.365Z,92682.56
2023-03-04T13:38:20.846Z,92684.28
2023-03-04T13:40:14.308Z,92683.19
2023-03-04T13:41:46.509Z,92676.41
2023-03-04T13:43:19.287Z,92676.91
2023-03-04T13:44:57.717Z,92675.00
2023-03-04T13:46:30.121Z,92676.78
2023-03-04T13:48:02.087Z,92671.91
2023-03-04T13:49:34.193Z,92674.22
2023-03-04T13:51:23.767Z,92671.03
2023-03-04T13:53:01.249Z,92676.53
2023-03-04T13:54:32.745Z,92676.84
2023-03-04T13:56:07.633Z,92673.66
2023-03-04T13:57:39.276Z,92674.91
2023-03-04T13:59:31.278Z,92679.03
2023-03-04T14:01:02.839Z,92671.94
2023-03-04T14:02:34.738Z,92673.22
2023-03-04T14:04:19.948Z,92666.72
2023-03-04T14:06:10.413Z,92675.41
2023-03-04T14:07:42.061Z,92668.75
2023-03-04T14:09:16.271Z,92667.38
2023-03-04T14:10:54.786Z,92666.72
2023-03-04T14:12:27.596Z,92664.84
2023-03-04T14:13:59.806Z,92663.47
2023-03-04T14:15:32.133Z,92662.59
2023-03-04T14:17:04.910Z,92666.34
2023-03-04T14:18:36.968Z,92665.25
2023-03-04T14:20:28.396Z,92665.25
2023-03-04T14:22:00.097Z,92668.13
2023-03-04T14:23:32.888Z,92664.16
2023-03-04T14:25:05.746Z,92657.72
2023-03-04T14:26:37.309Z,92666.22
2023-03-04T14:28:08.969Z,92654.41
2023-03-04T14:29:41.001Z,92664.81
2023-03-04T14:31:15.525Z,92656.63
2023-03-04T14:32:48.673Z,92665.25
2023-03-04T14:34:24.533Z,92661.59
2023-03-04T14:35:59.442Z,92652.84
2023-03-04T14:37:44.710Z,92655.53
2023-03-04T14:39:16.964Z,92649.50
2023-03-04T14:40:49.865Z,92641.75
2023-03-04T14:42:21.818Z,92641.75
2023-03-04T14:44:11.948Z,92642.53
2023-03-04T14:45:44.023Z,92639.25
2023-03-04T14:47:15.961Z,92639.34
2023-03-04T14:48:51.432Z,92639.72
2023-03-04T14:50:23.089Z,92641.47
2023-03-04T14:51:55.597Z,92644.97
2023-03-04T14:53:28.056Z,92639.09
2023-03-04T14:55:01.191Z,92635.16
2023-03-04T14:56:34.422Z,92634.38
2023-03-04T14:58:22.535Z,92627.41
2023-03-04T14:59:54.202Z,92625.03
2023-03-04T15:01:28.628Z,92621.56
2023-03-04T15:03:01.153Z,92621.56
2023-03-04T15:04:32.938Z,92619.97
2023-03-04T15:06:08.504Z,92616.19
2023-03-04T15:07:40.943Z,92619.38
2023-03-04T15:09:19.740Z,92618.75
2023-03-04T15:10:58.641Z,92612.78
2023-03-04T15:12:30.929Z,92610.47
2023-03-04T15:14:02.931Z,92614.09
2023-03-04T15:15:42.356Z,92614.47
2023-03-04T15:17:26.369Z,92617.50
2023-03-04T15:19:06.443Z,92613.88
2023-03-04T15:20:38.020Z,92610.09
2023-03-04T15:22:09.679Z,92614.69
2023-03-04T15:23:41.358Z,92613.88
2023-03-04T15:25:15.442Z,92606.31
2023-03-04T15:26:47.346Z,92610.28
2023-03-04T15:28:19.189Z,92607.78
2023-03-04T15:29:52.027Z,92604.31
2023-03-04T15:31:24.053Z,92600.97
2023-03-04T15:32:56.170Z,92601.44
2023-03-04T15:34:27.885Z,92594.81
2023-03-04T15:36:00.166Z,92593.09
2023-03-04T15:37:32.011Z,92602.72
2023-03-04T15:39:03.938Z,92598.47
2023-03-04T15:40:39.371Z,92595.47
2023-03-04T15:42:12.207Z,92594.88
2023-03-04T15:43:44.080Z,92589.31
2023-03-04T15:45:23.488Z,92586.44
2023-03-04T15:46:55.044Z,92588.00
2023-03-04T15:48:26.620Z,92586.22
2023-03-04T15:49:58.472Z,92587.00
2023-03-04T15:51:31.088Z,92587.00
2023-03-04T15:53:03.571Z,92585.13
2023-03-04T15:54:35.225Z,92589.06
2023-03-04T15:56:08.511Z,92581.41
2023-03-04T15:57:40.549Z,92582.34
2023-03-04T15:59:12.747Z,92587.84
2023-03-04T16:00:44.506Z,92584.97
2023-03-04T16:02:27.492Z,92589.06
2023-03-04T16:03:59.200Z,92597.44
2023-03-04T16:05:31.913Z,92599.00
2023-03-04T16:07:04.242Z,92586.69
2023-03-04T16:08:36.901Z,92595.84
2023-03-04T16:10:09.578Z,92597.81
2023-03-04T16:11:43.951Z,92593.88
2023-03-04T16:13:16.298Z,92592.38
2023-03-04T16:14:49.392Z,92588.56
2023-03-04T16:16:21.220Z,92587.56
2023-03-04T16:17:53.259Z,92577.78
2023-03-04T16:19:25.028Z,92582.25
2023-03-04T16:20:56.893Z,92582.34
2023-03-04T16:22:28.649Z,92576.72
2023-03-04T16:24:00.583Z,92577.25
2023-03-04T16:25:32.167Z,92573.69
2023-03-04T16:27:06.245Z,92579.25
2023-03-04T16:28:38.012Z,92578.06
2023-03-04T16:30:14.039Z,92573.94
2023-03-04T16:31:45.749Z,92578.28
2023-03-04T16:33:17.437Z,92580.88
2023-03-04T16:34:50.527Z,92584.44
2023-03-04T16:36:25.777Z,92583.66
2023-03-04T16:37:57.524Z,92584.44
2023-03-04T16:39:29.301Z,92586.81
2023-03-04T16:41:02.612Z,92591.09
2023-03-04T16:42:34.317Z,92586.22
2023-03-04T16:44:09.201Z,92583.44
2023-03-04T16:45:40.897Z,92583.44
2023-03-04T16:47:12.582Z,92583.44
2023-03-04T16:48:44.164Z,92586.91
2023-03-04T16:50:17.856Z,92590.09
2023-03-04T16:51:50.265Z,92589.00
2023-03-04T16:53:30.036Z,92579.97
2023-03-04T16:55:02.047Z,92586.72
2023-03-04T16:56:34.382Z,92598.53
2023-03-04T16:58:08.341Z,92588.63
2023-03-04T16:59:40.512Z,92585.72
2023-03-04T17:01:19.041Z,92590.00
2023-03-04T17:02:54.586Z,92588.19
2023-03-04T17:04:26.347Z,92588.41
2023-03-04T17:05:58.126Z,92589.91
2023-03-04T17:07:29.755Z,92583.84
2023-03-04T17:09:01.482Z,92595.44
2023-03-04T17:10:33.248Z,92580.47
2023-03-04T17:12:09.029Z,92597.13
2023-03-04T17:13:40.669Z,92591.56
2023-03-04T17:15:12.655Z,92596.72
2023-03-04T17:16:44.634Z,92587.91
2023-03-04T17:18:16.302Z,92598.31
2023-03-04T17:19:47.940Z,92596.72
2023-03-04T17:21:20.434Z,92592.16
2023-03-04T17:22:52.602Z,92587.63
2023-03-04T17:24:25.194Z,92596.63
2023-03-04T17:25:57.539Z,92598.13
2023-03-04T17:27:29.716Z,92599.31
2023-03-04T17:29:01.412Z,92583.47
2023-03-04T17:30:33.104Z,92595.94
2023-03-04T17:32:04.902Z,92607.72
2023-03-04T17:33:37.177Z,92597.03
2023-03-04T17:35:09.741Z,92590.59
2023-03-04T17:36:44.223Z,92597.44
2023-03-04T17:38:15.976Z,92598.72
2023-03-04T17:39:47.669Z,92593.38
2023-03-04T17:41:19.823Z,92597.81
2023-03-04T17:42:51.679Z,92598.03
2023-03-04T17:44:23.515Z,92592.38
2023-03-04T17:46:02.080Z,92601.38
2023-03-04T17:47:36.095Z,92597.81
2023-03-04T17:49:07.789Z,92595.63
2023-03-04T17:50:39.651Z,92598.63
2023-03-04T17:52:11.472Z,92599.13
2023-03-04T17:53:43.711Z,92600.88
2023-03-04T17:55:15.545Z,92597.31
2023-03-04T17:56:47.369Z,92595.44
2023-03-04T17:58:19.254Z,92593.25
2023-03-04T17:59:51.057Z,92592.47
2023-03-04T18:01:22.803Z,92592.47
2023-03-04T18:02:54.816Z,92589.47
2023-03-04T18:04:26.553Z,92586.81
2023-03-04T18:05:58.497Z,92588.06
2023-03-04T18:07:32.434Z,92583.50
2023-03-04T18:09:04.900Z,92592.03
2023-03-04T18:10:42.708Z,92585.38
2023-03-04T18:12:15.315Z,92577.69
2023-03-04T18:13:47.709Z,92585.72
2023-03-04T18:15:19.641Z,92576.41
2023-03-04T18:16:51.366Z,92578.28
2023-03-04T18:18:25.396Z,92579.38
2023-03-04T18:19:56.985Z,92586.59
2023-03-04T18:21:29.020Z,92583.13
2023-03-04T18:23:01.147Z,92572.31
2023-03-04T18:24:33.194Z,92576.47
2023-03-04T18:26:05.015Z,92580.44
2023-03-04T18:27:39.757Z,92579.66
2023-03-04T18:29:11.626Z,92580.44
2023-03-04T18:30:43.500Z,92575.69
2023-03-04T18:32:15.470Z,92581.81
2023-03-04T18:33:47.474Z,92590.94
2023-03-04T18:35:19.970Z,92588.06
2023-03-04T18:37:02.258Z,92592.97
2023-03-04T18:38:38.754Z,92592.47